Time;durP1;ratioP1;P1;durP2;ratioP2;P2;SDS_P1;SDS_P2;PMS_P1;PMS_P2;Temp;Humidity;BMP_temperature;BMP_pressure;BME280_temperature;BME280_humidity;BME280_pressure;Samples;Min_cycle;Max_cycle;Signal;HPM_P1;HPM_P2
2023/10/03 00:00:24;;;;;;;1.17;0.70;;;;;;;25.01;91.80;99400.50;7391125;19;20014;-81
2023/10/03 00:02:54;;;;;;;0.40;0.40;;;;;;;17.31;100.00;99399.69;7391199;19;20034;-81
2023/10/03 00:05:28;;;;;;;0.32;0.22;;;;;;;16.32;100.00;99393.19;7393390;19;20025;-81
2023/10/03 00:07:55;;;;;;;0.15;0.10;;;;;;;13.42;100.00;99406.03;7388550;19;20022;-82
2023/10/03 00:10:22;;;;;;;0.57;0.40;;;;;;;14.53;100.00;99389.19;7390013;19;20078;-81
2023/10/03 00:12:51;;;;;;;0.45;0.30;;;;;;;15.94;100.00;99383.81;7392815;19;20019;-82
2023/10/03 00:15:21;;;;;;;0.43;0.38;;;;;;;15.80;100.00;99396.97;7393191;19;20014;-81
2023/10/03 00:17:47;;;;;;;0.30;0.20;;;;;;;16.54;100.00;99396.56;7388637;19;20015;-82
2023/10/03 00:20:16;;;;;;;0.20;0.20;;;;;;;36.02;52.25;99374.50;7388220;19;20021;-81
2023/10/03 00:22:42;;;;;;;0.10;0.10;;;;;;;37.11;46.71;99374.13;7390833;19;20466;-82
2023/10/03 00:25:16;;;;;;;0.50;0.40;;;;;;;38.88;39.87;99381.72;7392258;19;20018;-81
2023/10/03 00:27:42;;;;;;;0.82;0.82;;;;;;;38.14;41.44;99385.41;7390260;19;20022;-81
2023/10/03 00:30:10;;;;;;;1.15;0.30;;;;;;;39.89;36.58;99385.00;7390166;19;20018;-81
2023/10/03 00:32:40;;;;;;;2.47;0.43;;;;;;;40.50;34.48;99384.13;7388248;19;20031;-81
2023/10/03 00:35:08;;;;;;;2.03;0.80;;;;;;;40.83;33.41;99386.25;7393509;19;20019;-81
2023/10/03 00:37:37;;;;;;;0.73;0.52;;;;;;;41.15;32.36;99376.59;7393123;19;20443;-81
2023/10/03 00:40:27;;;;;;;1.40;0.17;;;;;;;24.57;71.12;99408.13;7397932;19;20017;-81
2023/10/03 00:42:59;;;;;;;0.75;0.50;;;;;;;37.42;42.64;99401.31;7396825;19;20014;-81
2023/10/03 00:45:26;;;;;;;0.20;0.20;;;;;;;35.83;39.32;99404.91;7400966;19;20508;-81
2023/10/03 00:47:54;;;;;;;2.55;0.88;;;;;;;31.99;56.06;99395.97;7396962;19;20018;-81
2023/10/03 00:50:29;;;;;;;1.30;0.60;;;;;;;39.57;35.99;99398.09;7395766;19;20031;-81
2023/10/03 00:52:59;;;;;;;0.43;0.35;;;;;;;40.72;32.96;99395.50;7396440;19;20011;-81
2023/10/03 00:55:26;;;;;;;0.55;0.38;;;;;;;41.12;31.68;99398.44;7397226;19;20357;-80
2023/10/03 01:00:43;;;;;;;4.00;1.38;;;;;;;41.51;30.26;99392.56;7395304;19;20086;-81
2023/10/03 01:03:31;;;;;;;4.18;0.82;;;;;;;41.75;29.37;99391.47;7395137;19;20014;-80
2023/10/03 01:06:11;;;;;;;1.45;0.28;;;;;;;41.89;29.26;99395.31;7393443;19;20022;-81
2023/10/03 01:08:49;;;;;;;1.30;0.83;;;;;;;42.08;28.94;99393.44;7395973;19;20026;-81
2023/10/03 01:11:18;;;;;;;0.90;0.32;;;;;;;41.93;28.92;99397.59;7394178;19;20481;-81
2023/10/03 01:13:53;;;;;;;6.70;0.88;;;;;;;42.01;28.25;99388.91;7397391;19;20022;-81
2023/10/03 01:16:43;;;;;;;0.73;0.40;;;;;;;42.02;28.11;99382.34;7392184;19;20021;-81
2023/10/03 01:19:20;;;;;;;0.32;0.20;;;;;;;42.17;27.64;99400.88;7393899;19;20011;-81
2023/10/03 01:21:49;;;;;;;4.32;1.08;;;;;;;42.00;27.52;99410.84;7395197;19;20043;-81
2023/10/03 01:24:24;;;;;;;1.05;0.43;;;;;;;42.02;27.65;99405.00;7397631;19;20026;-81
2023/10/03 01:26:54;;;;;;;2.17;0.73;;;;;;;41.93;27.30;99406.38;7392083;19;20014;-81
2023/10/03 01:29:21;;;;;;;0.22;0.13;;;;;;;41.88;27.67;99410.69;7394340;19;20060;-81
2023/10/03 01:31:50;;;;;;;0.85;0.40;;;;;;;34.75;32.96;99424.97;7394200;19;20018;-81
2023/10/03 01:34:19;;;;;;;0.35;0.35;;;;;;;28.12;46.61;99433.84;7395214;19;20014;-81
2023/10/03 01:36:48;;;;;;;1.15;0.52;;;;;;;38.49;33.64;99408.28;7391663;19;20019;-81
2023/10/03 01:39:14;;;;;;;0.43;0.10;;;;;;;40.45;30.35;99411.03;7392102;19;20019;-81
2023/10/03 01:41:42;;;;;;;0.43;0.32;;;;;;;41.04;29.41;99410.00;7393440;19;20487;-81
2023/10/03 01:44:08;;;;;;;1.20;0.90;;;;;;;41.23;28.94;99406.69;7396261;19;20020;-81
2023/10/03 01:46:34;;;;;;;0.47;0.47;;;;;;;41.33;28.64;99412.72;7392373;19;20015;-81
2023/10/03 01:49:02;;;;;;;3.13;0.45;;;;;;;41.20;28.41;99416.09;7389816;19;20025;-81
2023/10/03 01:51:28;;;;;;;2.10;0.98;;;;;;;41.41;28.28;99418.69;7393702;19;20031;-81
2023/10/03 01:53:57;;;;;;;0.30;0.30;;;;;;;41.38;27.86;99411.34;7394360;19;20003;-81
2023/10/03 01:56:25;;;;;;;0.68;0.57;;;;;;;41.33;27.97;99414.91;7391501;19;20030;-81
2023/10/03 01:58:53;;;;;;;1.88;0.38;;;;;;;37.97;31.65;99419.06;7395873;19;20370;-81
2023/10/03 02:01:19;;;;;;;1.45;0.50;;;;;;;40.17;29.28;99417.00;7393021;19;20021;-81
2023/10/03 02:03:45;;;;;;;1.60;0.50;;;;;;;34.57;36.43;99412.59;7395940;19;20031;-81
2023/10/03 02:06:12;;;;;;;1.90;0.55;;;;;;;40.23;29.66;99417.13;7391555;19;20011;-81
2023/10/03 02:08:38;;;;;;;0.75;0.10;;;;;;;40.97;28.63;99406.22;7392242;19;20048;-81
2023/10/03 02:11:06;;;;;;;5.60;1.10;;;;;;;41.19;28.48;99400.78;7392914;19;20021;-81
2023/10/03 02:13:34;;;;;;;8.55;1.55;;;;;;;41.16;28.40;99410.94;7396898;19;20033;-81
2023/10/03 02:16:00;;;;;;;5.80;0.43;;;;;;;41.31;28.17;99403.19;7391472;19;20011;-81
2023/10/03 02:18:26;;;;;;;1.20;0.50;;;;;;;41.32;27.80;99408.34;7392378;19;20021;-82
2023/10/03 02:21:03;;;;;;;0.45;0.43;;;;;;;41.38;28.00;99405.50;7393993;19;20055;-81
2023/10/03 02:23:32;;;;;;;3.20;0.77;;;;;;;41.41;27.38;99418.69;7394019;19;20011;-81
2023/10/03 02:26:16;;;;;;;1.48;0.63;;;;;;;41.27;27.49;99415.56;7391746;19;20030;-81
2023/10/03 02:28:42;;;;;;;1.95;0.60;;;;;;;27.99;39.73;99437.97;7396463;19;20018;-81
2023/10/03 02:31:10;;;;;;;1.83;0.93;;;;;;;39.67;29.63;99419.47;7393232;19;20477;-81
2023/10/03 02:33:38;;;;;;;1.17;0.65;;;;;;;40.66;28.18;99418.75;7392956;19;20015;-81
2023/10/03 02:36:05;;;;;;;2.13;1.08;;;;;;;41.05;28.16;99423.91;7391246;19;20042;-81
2023/10/03 02:38:36;;;;;;;3.80;1.65;;;;;;;40.81;28.34;99423.41;7394034;19;20359;-81
2023/10/03 02:41:06;;;;;;;0.40;0.40;;;;;;;40.01;29.28;99426.13;7391689;19;20015;-81
2023/10/03 02:43:38;;;;;;;2.03;0.38;;;;;;;31.19;37.26;99444.66;7392125;19;20007;-81
2023/10/03 02:46:07;;;;;;;5.47;0.63;;;;;;;26.19;64.40;99455.06;7390665;19;20021;-81
2023/10/03 02:48:35;;;;;;;2.30;1.15;;;;;;;20.49;100.00;99459.34;7390654;19;20029;-81
2023/10/03 02:51:03;;;;;;;2.70;1.00;;;;;;;29.31;68.06;99451.44;7391654;19;20014;-81
2023/10/03 02:53:29;;;;;;;1.05;0.52;;;;;;;20.43;100.00;99458.75;7392059;19;20022;-81
2023/10/03 02:55:55;;;;;;;4.40;0.55;;;;;;;21.78;100.00;99464.44;7390127;19;20063;-81
2023/10/03 02:58:21;;;;;;;3.33;1.23;;;;;;;21.27;90.26;99458.00;7395789;19;20018;-81
2023/10/03 03:00:57;;;;;;;2.75;0.95;;;;;;;20.98;88.51;99465.78;7389630;19;20469;-81
2023/10/03 03:03:32;;;;;;;2.88;1.92;;;;;;;15.92;100.00;99477.03;7390986;19;20010;-80
2023/10/03 03:06:09;;;;;;;3.53;0.70;;;;;;;16.45;100.00;99478.41;7388766;19;20015;-81
2023/10/03 03:08:39;;;;;;;3.67;1.15;;;;;;;15.95;100.00;99480.84;7389967;19;20022;-81
2023/10/03 03:11:05;;;;;;;3.97;0.77;;;;;;;15.98;100.00;99479.81;7391654;19;20014;-80
2023/10/03 03:13:33;;;;;;;6.97;0.52;;;;;;;15.89;100.00;99475.28;7393582;19;20021;-81
2023/10/03 03:16:03;;;;;;;0.82;0.63;;;;;;;15.87;100.00;99474.28;7391560;19;20027;-81
2023/10/03 03:18:31;;;;;;;1.52;0.95;;;;;;;15.81;100.00;99470.72;7391041;19;20031;-81
2023/10/03 03:20:58;;;;;;;2.42;1.17;;;;;;;15.67;100.00;99464.19;7391574;19;20033;-81
2023/10/03 03:23:36;;;;;;;1.98;1.10;;;;;;;15.51;100.00;99470.66;7391575;19;20018;-81
2023/10/03 03:26:17;;;;;;;1.15;1.05;;;;;;;15.36;100.00;99475.03;7391180;19;20018;-81
2023/10/03 03:28:45;;;;;;;3.38;1.20;;;;;;;15.22;100.00;99470.53;7394369;19;20019;-81
2023/10/03 03:31:22;;;;;;;7.30;1.08;;;;;;;15.10;100.00;99470.56;7392640;19;20094;-81
2023/10/03 03:33:49;;;;;;;1.75;1.17;;;;;;;15.02;100.00;99480.81;7391960;19;20083;-81
2023/10/03 03:36:17;;;;;;;1.15;1.05;;;;;;;14.96;100.00;99482.88;7391585;19;20022;-81
2023/10/03 03:38:47;;;;;;;2.90;1.17;;;;;;;14.90;100.00;99484.91;7391885;19;20519;-80
2023/10/03 03:41:14;;;;;;;0.47;0.43;;;;;;;14.81;100.00;99487.97;7391947;19;20018;-80
2023/10/03 03:43:40;;;;;;;3.50;0.45;;;;;;;14.72;100.00;99485.47;7390965;19;20014;-81
2023/10/03 03:46:08;;;;;;;3.03;1.42;;;;;;;14.70;100.00;99485.22;7392375;19;20030;-81
2023/10/03 03:48:34;;;;;;;2.38;1.55;;;;;;;14.71;100.00;99483.94;7390834;19;20382;-81
2023/10/03 03:51:00;;;;;;;0.32;0.32;;;;;;;14.69;100.00;99488.53;7392313;19;20365;-81
2023/10/03 03:53:29;;;;;;;0.88;0.35;;;;;;;14.64;100.00;99487.25;7389535;19;20014;-80
2023/10/03 03:55:56;;;;;;;0.38;0.38;;;;;;;14.59;100.00;99485.25;7389927;19;20010;-81
2023/10/03 03:58:22;;;;;;;0.20;0.20;;;;;;;14.56;100.00;99494.66;7392379;19;20019;-81
2023/10/03 04:00:51;;;;;;;4.28;0.85;;;;;;;14.55;100.00;99493.16;7390525;19;20022;-82
2023/10/03 04:03:18;;;;;;;4.97;1.55;;;;;;;14.50;100.00;99493.91;7391242;19;20021;-80
2023/10/03 04:05:49;;;;;;;2.33;0.98;;;;;;;14.46;100.00;99499.00;7390467;19;20019;-81
2023/10/03 04:08:18;;;;;;;1.10;0.63;;;;;;;14.42;100.00;99493.66;7388585;19;20027;-81
2023/10/03 04:10:44;;;;;;;2.95;0.85;;;;;;;14.42;100.00;99495.72;7391245;19;20028;-81
2023/10/03 04:13:10;;;;;;;0.30;0.30;;;;;;;14.43;100.00;99492.38;7397270;19;20014;-81
2023/10/03 04:15:40;;;;;;;1.75;0.88;;;;;;;14.43;100.00;99494.41;7394188;19;20022;-81
2023/10/03 04:18:07;;;;;;;3.35;0.70;;;;;;;14.37;100.00;99499.28;7398351;19;20023;-81
2023/10/03 04:20:35;;;;;;;0.85;0.47;;;;;;;14.30;100.00;99499.78;7397008;19;20485;-82
2023/10/03 04:23:06;;;;;;;18.77;1.23;;;;;;;14.21;100.00;99503.56;7397026;19;20022;-81
2023/10/03 04:25:33;;;;;;;2.35;1.38;;;;;;;14.12;100.00;99506.63;7401146;19;20015;-81
2023/10/03 04:28:05;;;;;;;4.30;0.60;;;;;;;14.05;100.00;99500.75;7399990;19;20010;-81
2023/10/03 04:30:31;;;;;;;1.75;1.02;;;;;;;13.98;100.00;99501.25;7395575;19;20081;-81
2023/10/03 04:32:57;;;;;;;0.38;0.20;;;;;;;13.93;100.00;99504.81;7396954;19;20467;-81
2023/10/03 04:35:25;;;;;;;3.03;0.47;;;;;;;13.89;100.00;99501.50;7400365;19;20022;-82
2023/10/03 04:37:52;;;;;;;3.60;0.20;;;;;;;13.87;100.00;99512.44;7395871;19;20015;-81
2023/10/03 04:40:23;;;;;;;0.35;0.35;;;;;;;13.83;100.00;99506.34;7395783;19;20093;-81
2023/10/03 04:42:49;;;;;;;2.28;0.65;;;;;;;13.79;100.00;99508.63;7395721;19;20022;-81
2023/10/03 04:45:18;;;;;;;1.00;0.85;;;;;;;13.73;100.00;99516.25;7400355;19;20021;-81
2023/10/03 04:47:46;;;;;;;0.98;0.68;;;;;;;13.67;100.00;99516.22;7395130;19;20022;-81
2023/10/03 04:50:24;;;;;;;0.43;0.35;;;;;;;13.62;100.00;99514.94;7395691;19;20022;-81
2023/10/03 04:52:50;;;;;;;0.10;0.10;;;;;;;13.57;100.00;99518.50;7396578;19;20030;-81
2023/10/03 04:55:19;;;;;;;0.38;0.38;;;;;;;13.51;100.00;99509.28;7394972;19;20018;-81
2023/10/03 04:57:47;;;;;;;0.98;0.68;;;;;;;13.48;100.00;99510.31;7396089;19;20016;-81
2023/10/03 05:00:18;;;;;;;3.95;0.77;;;;;;;13.48;100.00;99509.53;7396422;19;20015;-81
2023/10/03 05:02:47;;;;;;;0.20;0.20;;;;;;;13.44;100.00;99506.22;7396821;19;20023;-80
2023/10/03 05:05:16;;;;;;;0.20;0.17;;;;;;;13.41;100.00;99499.59;7394513;19;20026;-81
2023/10/03 05:07:43;;;;;;;2.42;0.22;;;;;;;13.40;100.00;99503.69;7396122;19;20027;-81
2023/10/03 05:10:09;;;;;;;0.88;0.88;;;;;;;13.38;100.00;99506.19;7395485;19;20050;-81
2023/10/03 05:12:35;;;;;;;0.10;0.10;;;;;;;13.35;100.00;99510.00;7397255;19;20022;-81
2023/10/03 05:15:03;;;;;;;0.32;0.25;;;;;;;13.34;100.00;99510.53;7396132;19;20361;-81
2023/10/03 05:17:30;;;;;;;0.63;0.28;;;;;;;13.29;100.00;99509.25;7395938;19;20016;-81
2023/10/03 05:19:58;;;;;;;0.60;0.60;;;;;;;13.26;100.00;99506.66;7396182;19;20031;-80
2023/10/03 05:22:28;;;;;;;1.52;0.17;;;;;;;13.22;100.00;99508.94;7396078;19;20019;-81
2023/10/03 05:24:54;;;;;;;0.30;0.25;;;;;;;13.15;100.00;99510.19;7396925;19;20039;-81
2023/10/03 05:27:20;;;;;;;0.75;0.50;;;;;;;15.72;100.00;99504.75;7395992;19;20042;-80
2023/10/03 05:29:46;;;;;;;0.10;0.10;;;;;;;13.35;100.00;99507.22;7391303;19;20469;-81
2023/10/03 05:32:14;;;;;;;1.38;0.30;;;;;;;30.35;64.81;99485.50;7398067;19;20014;-81
2023/10/03 05:34:40;;;;;;;0.13;0.13;;;;;;;18.02;100.00;99507.72;7394315;19;20018;-81
2023/10/03 05:37:06;;;;;;;2.97;0.52;;;;;;;14.34;100.00;99511.47;7391889;19;20022;-81
2023/10/03 05:39:32;;;;;;;0.85;0.85;;;;;;;13.46;100.00;99517.69;7394160;19;20022;-81
2023/10/03 05:42:00;;;;;;;0.45;0.45;;;;;;;16.25;100.00;99515.34;7399128;19;20023;-81
2023/10/03 05:44:26;;;;;;;0.43;0.20;;;;;;;13.43;100.00;99524.28;7397663;19;20037;-81
2023/10/03 05:46:55;;;;;;;1.00;0.73;;;;;;;10.10;100.00;99533.91;7397194;19;20014;-81
2023/10/03 05:49:24;;;;;;;0.30;0.30;;;;;;;9.16;100.00;99543.97;7395265;19;20021;-81
2023/10/03 05:51:55;;;;;;;0.10;0.10;;;;;;;9.14;100.00;99543.69;7392933;19;20022;-81
2023/10/03 05:54:23;;;;;;;0.52;0.52;;;;;;;12.30;100.00;99526.09;7392655;19;20368;-81
2023/10/03 05:56:50;;;;;;;0.22;0.20;;;;;;;9.78;100.00;99535.63;7393092;19;20047;-81
2023/10/03 05:59:16;;;;;;;2.40;1.23;;;;;;;8.93;100.00;99535.66;7394496;19;20074;-81
2023/10/03 06:01:42;;;;;;;0.50;0.38;;;;;;;11.96;100.00;99527.84;7392245;19;20011;-81
2023/10/03 06:04:09;;;;;;;1.08;0.70;;;;;;;11.24;100.00;99538.16;7392513;19;20025;-81
2023/10/03 06:06:35;;;;;;;0.10;0.10;;;;;;;11.02;100.00;99551.78;7390815;19;20111;-81
2023/10/03 06:09:02;;;;;;;2.92;0.47;;;;;;;15.51;100.00;99532.41;7394936;19;20010;-80
2023/10/03 06:11:30;;;;;;;0.15;0.15;;;;;;;12.80;100.00;99551.63;7393583;19;20492;-81
2023/10/03 06:13:57;;;;;;;0.20;0.20;;;;;;;11.47;100.00;99550.38;7398862;19;20015;-81
2023/10/03 06:16:24;;;;;;;3.08;0.35;;;;;;;10.71;100.00;99562.75;7390716;19;20006;-81
2023/10/03 06:18:51;;;;;;;0.80;0.30;;;;;;;12.24;100.00;99549.66;7392971;19;20477;-81
2023/10/03 06:21:18;;;;;;;0.63;0.60;;;;;;;17.76;100.00;99549.84;7394162;19;20022;-81
2023/10/03 06:23:47;;;;;;;0.57;0.57;;;;;;;16.86;100.00;99547.81;7395188;19;20090;-81
2023/10/03 06:26:18;;;;;;;0.40;0.40;;;;;;;12.83;100.00;99550.63;7392636;19;20015;-81
2023/10/03 06:28:45;;;;;;;;;;;;;;;12.76;100.00;99556.66;7395420;19;20022;-80
2023/10/03 06:31:11;;;;;;;0.10;0.10;;;;;;;12.77;100.00;99552.63;7393747;19;19926;-81
2023/10/03 06:33:39;;;;;;;0.28;0.28;;;;;;;12.78;100.00;99563.31;7389129;19;20014;-81
2023/10/03 06:36:06;;;;;;;0.10;0.10;;;;;;;12.77;100.00;99569.41;7389886;19;20074;-81
2023/10/03 06:38:33;;;;;;;0.15;0.15;;;;;;;12.91;100.00;99576.84;7393879;19;20017;-80
2023/10/03 06:40:59;;;;;;;1.00;0.50;;;;;;;15.27;100.00;99585.50;7390992;19;20022;-80
2023/10/03 06:43:26;;;;;;;0.20;0.20;;;;;;;13.36;100.00;99586.31;7395086;19;20030;-81
2023/10/03 06:45:52;;;;;;;0.20;0.20;;;;;;;24.57;100.00;99581.84;7396223;19;20023;-81
2023/10/03 06:48:21;;;;;;;0.10;0.10;;;;;;;29.16;74.53;99572.34;7394172;19;20031;-81
2023/10/03 06:50:47;;;;;;;0.10;0.10;;;;;;;26.91;79.14;99580.03;7392810;19;20019;-81
2023/10/03 06:53:13;;;;;;;0.15;0.15;;;;;;;23.67;72.35;99595.13;7395890;19;20468;-81
2023/10/03 06:55:39;;;;;;;0.40;0.30;;;;;;;34.27;47.08;99578.91;7390883;19;20015;-82
2023/10/03 06:58:06;;;;;;;0.50;0.35;;;;;;;35.93;40.74;99581.41;7395372;19;20010;-81
2023/10/03 07:00:32;;;;;;;0.70;0.20;;;;;;;36.89;37.67;99573.72;7390466;19;20014;-81
2023/10/03 07:02:59;;;;;;;0.52;0.52;;;;;;;34.02;37.77;99582.75;7396481;19;20018;-81
2023/10/03 07:05:25;;;;;;;0.10;0.10;;;;;;;16.79;100.00;99616.66;7391638;19;20521;-81
2023/10/03 07:07:51;;;;;;;0.15;0.15;;;;;;;15.26;100.00;99617.66;7394447;19;20018;-81
2023/10/03 07:10:17;;;;;;;0.40;0.30;;;;;;;13.92;100.00;99618.06;7392164;19;20018;-81
2023/10/03 07:12:43;;;;;;;0.10;0.00;;;;;;;14.19;100.00;99625.78;7392919;19;20014;-81
2023/10/03 07:15:11;;;;;;;2.47;0.20;;;;;;;15.17;100.00;99627.13;7391315;19;20017;-81
2023/10/03 07:17:38;;;;;;;0.10;0.10;;;;;;;24.83;100.00;99615.50;7392222;19;20015;-81
2023/10/03 07:20:07;;;;;;;0.10;0.10;;;;;;;32.17;56.21;99607.34;7392862;19;20002;-81
2023/10/03 07:22:34;;;;;;;1.65;0.35;;;;;;;33.55;48.74;99610.66;7394860;19;20342;-82
2023/10/03 07:25:04;;;;;;;0.40;0.40;;;;;;;17.03;100.00;99633.56;7394371;19;20024;-81
2023/10/03 07:27:30;;;;;;;0.13;0.13;;;;;;;23.34;98.03;99627.63;7391578;19;20018;-81
2023/10/03 07:29:56;;;;;;;0.20;0.20;;;;;;;15.86;100.00;99641.22;7388333;19;20377;-81
2023/10/03 07:32:22;;;;;;;0.40;0.20;;;;;;;16.77;100.00;99638.16;7391977;19;20015;-81
2023/10/03 07:34:49;;;;;;;1.05;0.47;;;;;;;14.75;100.00;99646.28;7392487;19;20019;-81
2023/10/03 07:37:15;;;;;;;0.10;0.00;;;;;;;13.73;100.00;99653.38;7393014;19;20025;-81
2023/10/03 07:39:42;;;;;;;0.28;0.28;;;;;;;13.60;100.00;99656.59;7391435;19;20015;-81
2023/10/03 07:42:09;;;;;;;0.20;0.13;;;;;;;14.26;100.00;99661.69;7389638;19;20032;-81
2023/10/03 07:44:36;;;;;;;0.28;0.28;;;;;;;14.78;100.00;99662.06;7390449;19;20018;-81
2023/10/03 07:47:03;;;;;;;3.28;0.28;;;;;;;14.92;100.00;99677.88;7395089;19;20143;-81
2023/10/03 07:49:31;;;;;;;0.15;0.13;;;;;;;13.71;100.00;99684.63;7400627;19;20010;-81
2023/10/03 07:52:00;;;;;;;0.20;0.20;;;;;;;14.31;100.00;99689.00;7398009;19;20018;-81
2023/10/03 07:54:28;;;;;;;0.20;0.10;;;;;;;13.98;100.00;99698.03;7399617;19;20022;-81
2023/10/03 07:56:54;;;;;;;0.10;0.05;;;;;;;13.87;100.00;99697.19;7401563;19;20034;-81
2023/10/03 07:59:25;;;;;;;6.82;0.40;;;;;;;14.95;100.00;99694.44;7398903;19;20294;-81
2023/10/03 08:01:52;;;;;;;1.85;0.73;;;;;;;14.91;100.00;99695.97;7397200;19;20019;-81
2023/10/03 08:04:18;;;;;;;0.10;0.00;;;;;;;15.10;100.00;99711.78;7397585;19;20030;-81
2023/10/03 08:06:44;;;;;;;2.05;0.63;;;;;;;15.41;100.00;99713.56;7395221;19;20029;-82
2023/10/03 08:09:13;;;;;;;3.72;0.52;;;;;;;15.63;100.00;99718.41;7394781;19;20028;-81
2023/10/03 08:11:40;;;;;;;0.10;0.10;;;;;;;15.58;100.00;99719.16;7397265;19;20018;-82
2023/10/03 08:14:13;;;;;;;0.10;0.10;;;;;;;15.51;100.00;99728.09;7397986;19;20021;-82
2023/10/03 08:16:40;;;;;;;5.63;0.50;;;;;;;15.55;100.00;99734.25;7397950;19;20006;-81
2023/10/03 08:19:08;;;;;;;0.10;0.00;;;;;;;16.04;100.00;99736.16;7396927;19;20030;-82
2023/10/03 08:21:35;;;;;;;0.10;0.00;;;;;;;15.78;100.00;99730.88;7399058;19;20476;-81
2023/10/03 08:24:09;;;;;;;0.20;0.00;;;;;;;15.85;100.00;99740.81;7395199;19;20022;-81
2023/10/03 08:26:37;;;;;;;0.80;0.47;;;;;;;16.00;100.00;99757.34;7394257;19;20073;-81
2023/10/03 08:29:06;;;;;;;0.85;0.20;;;;;;;16.05;100.00;99748.91;7401173;19;20018;-82
2023/10/03 08:31:33;;;;;;;0.00;0.00;;;;;;;16.05;100.00;99759.41;7399345;19;20010;-82
2023/10/03 08:34:00;;;;;;;0.43;0.30;;;;;;;16.14;100.00;99768.28;7397016;19;20018;-81
2023/10/03 08:36:29;;;;;;;0.15;0.00;;;;;;;16.16;100.00;99765.72;7394540;19;20018;-82
2023/10/03 08:39:05;;;;;;;0.10;0.10;;;;;;;16.18;100.00;99763.16;7400499;19;20022;-81
2023/10/03 08:41:45;;;;;;;0.10;0.10;;;;;;;16.19;100.00;99770.31;7394463;19;20014;-81
2023/10/03 08:44:12;;;;;;;0.38;0.10;;;;;;;16.14;100.00;99779.53;7398386;19;20486;-81
2023/10/03 08:46:44;;;;;;;0.88;0.52;;;;;;;16.21;100.00;99781.03;7394310;19;20018;-82
2023/10/03 08:49:12;;;;;;;0.10;0.10;;;;;;;16.24;100.00;99783.56;7400147;19;20029;-82
2023/10/03 08:51:38;;;;;;;0.40;0.40;;;;;;;16.15;100.00;99791.53;7395521;19;20027;-82
2023/10/03 08:54:12;;;;;;;0.30;0.20;;;;;;;21.16;100.00;99777.63;7399250;19;20014;-81
2023/10/03 08:56:42;;;;;;;0.20;0.20;;;;;;;33.74;63.40;99760.47;7392847;19;20058;-81
2023/10/03 08:59:09;;;;;;;0.45;0.20;;;;;;;35.42;52.95;99773.31;7399383;19;20503;-82
2023/10/03 09:01:43;;;;;;;0.20;0.00;;;;;;;35.91;47.93;99781.34;7395046;19;20374;-82
2023/10/03 09:04:15;;;;;;;0.35;0.25;;;;;;;36.02;45.31;99780.44;7398311;19;20662;-82
2023/10/03 09:06:46;;;;;;;0.25;0.20;;;;;;;30.81;53.27;99798.97;7398751;19;20346;-82
2023/10/03 09:09:13;;;;;;;1.23;0.52;;;;;;;35.05;45.11;99796.91;7397810;19;20034;-82
2023/10/03 09:11:44;;;;;;;0.45;0.25;;;;;;;37.21;41.19;99786.97;7396536;19;20027;-82
2023/10/03 09:14:14;;;;;;;0.20;0.10;;;;;;;38.16;39.25;99784.03;7393641;19;20042;-81
2023/10/03 09:16:40;;;;;;;0.38;0.25;;;;;;;38.71;37.10;99790.38;7392462;19;20030;-81
2023/10/03 09:19:09;;;;;;;0.10;0.00;;;;;;;38.95;36.77;99790.41;7397999;19;20039;-81
2023/10/03 09:21:36;;;;;;;0.57;0.57;;;;;;;39.06;35.74;99793.00;7396099;19;20026;-81
2023/10/03 09:24:10;;;;;;;8.02;0.40;;;;;;;39.20;35.03;99799.28;7395896;19;20074;-81
2023/10/03 09:26:51;;;;;;;0.47;0.10;;;;;;;39.24;34.87;99798.69;7392898;19;20014;-81
2023/10/03 09:29:18;;;;;;;0.00;0.00;;;;;;;39.19;34.70;99802.88;7394066;19;20014;-81
2023/10/03 09:31:47;;;;;;;0.52;0.10;;;;;;;39.09;34.41;99817.13;7397457;19;20026;-80
2023/10/03 09:34:16;;;;;;;0.10;0.03;;;;;;;38.91;33.98;99819.44;7395481;19;20014;-80
2023/10/03 09:36:42;;;;;;;0.10;0.10;;;;;;;39.21;33.60;99818.28;7393873;19;20018;-81
2023/10/03 09:39:08;;;;;;;0.43;0.35;;;;;;;39.19;33.42;99818.22;7399572;19;20026;-81
2023/10/03 09:41:38;;;;;;;0.22;0.22;;;;;;;39.74;32.54;99820.66;7395341;19;20010;-81
2023/10/03 09:44:07;;;;;;;0.45;0.32;;;;;;;39.97;32.58;99819.13;7393131;19;20049;-82
2023/10/03 09:46:40;;;;;;;1.23;0.38;;;;;;;40.32;31.57;99823.78;7391546;19;20085;-81
2023/10/03 09:49:10;;;;;;;0.10;0.10;;;;;;;21.50;99.28;99857.66;7395745;19;20095;-81
2023/10/03 09:51:45;;;;;;;1.13;0.63;;;;;;;19.27;100.00;99860.34;7394477;19;20362;-81
2023/10/03 09:54:24;;;;;;;1.40;0.40;;;;;;;18.40;100.00;99852.44;7395045;19;20250;-81
2023/10/03 09:56:52;;;;;;;0.10;0.10;;;;;;;17.94;100.00;99855.47;7391420;19;20103;-81
2023/10/03 09:59:23;;;;;;;0.30;0.20;;;;;;;17.80;100.00;99867.91;7396924;19;20018;-81
2023/10/03 10:01:54;;;;;;;0.05;0.00;;;;;;;17.72;100.00;99867.69;7394492;19;20018;-81
2023/10/03 10:04:23;;;;;;;1.98;0.52;;;;;;;17.60;100.00;99890.84;7393914;19;20018;-82
2023/10/03 10:06:52;;;;;;;0.10;0.00;;;;;;;17.66;100.00;99892.31;7390900;19;20370;-81
2023/10/03 10:09:28;;;;;;;0.20;0.20;;;;;;;19.05;100.00;99886.03;7395315;19;20006;-81
2023/10/03 10:12:14;;;;;;;0.20;0.10;;;;;;;23.82;100.00;99876.66;7394150;19;20014;-81
2023/10/03 10:15:01;;;;;;;0.65;0.63;;;;;;;19.46;100.00;99895.00;7394452;19;20011;-80
2023/10/03 10:17:51;;;;;;;2.90;0.45;;;;;;;20.01;100.00;99892.59;7394778;19;20015;-81
2023/10/03 10:20:27;;;;;;;0.22;0.22;;;;;;;21.33;100.00;99892.03;7393926;19;20036;-81
2023/10/03 10:23:01;;;;;;;0.10;0.00;;;;;;;35.63;56.26;99877.19;7394012;19;20367;-81
2023/10/03 10:25:28;;;;;;;0.00;0.00;;;;;;;39.23;40.22;99872.97;7393776;19;20014;-81
2023/10/03 10:28:05;;;;;;;0.05;0.05;;;;;;;40.28;36.54;99867.47;7394900;19;20037;-82
2023/10/03 10:30:36;;;;;;;1.00;0.30;;;;;;;40.69;34.61;99878.84;7390321;19;20035;-81
2023/10/03 10:33:14;;;;;;;10.23;1.38;;;;;;;41.06;33.27;99884.22;7391128;19;20070;-81
2023/10/03 10:35:56;;;;;;;1.02;0.30;;;;;;;41.24;32.27;99884.69;7390649;19;20424;-82
2023/10/03 10:38:31;;;;;;;0.00;0.00;;;;;;;41.44;31.79;99878.56;7393954;19;20042;-81
2023/10/03 10:41:31;;;;;;;0.75;0.20;;;;;;;41.60;31.38;99878.22;7392083;19;20036;-82
2023/10/03 10:44:06;;;;;;;0.10;0.08;;;;;;;41.48;30.86;99872.81;7390867;19;20041;-82
2023/10/03 10:46:35;;;;;;;0.70;0.10;;;;;;;38.77;33.26;99875.03;7391779;19;20046;-82
2023/10/03 10:49:06;;;;;;;0.17;0.17;;;;;;;23.91;67.56;99910.25;7395885;19;20021;-81
2023/10/03 10:51:36;;;;;;;0.40;0.20;;;;;;;24.90;97.18;99908.16;7391244;19;20015;-81
2023/10/03 10:54:04;;;;;;;1.05;0.32;;;;;;;28.44;67.58;99903.91;7390926;19;20021;-81
2023/10/03 10:56:32;;;;;;;0.68;0.65;;;;;;;35.72;44.24;99898.59;7390556;19;20022;-81
2023/10/03 10:59:07;;;;;;;0.10;0.10;;;;;;;38.81;35.41;99904.31;7395343;19;20015;-81
2023/10/03 11:01:38;;;;;;;0.52;0.32;;;;;;;38.78;34.85;99899.06;7390349;19;20354;-81
2023/10/03 11:04:05;;;;;;;1.25;0.32;;;;;;;39.37;33.37;99902.56;7391125;19;20073;-81
2023/10/03 11:06:32;;;;;;;2.72;0.52;;;;;;;35.93;36.16;99906.84;7388414;19;20010;-82
2023/10/03 11:08:58;;;;;;;7.78;0.65;;;;;;;38.96;32.96;99890.97;7393179;19;20070;-81
2023/10/03 11:11:35;;;;;;;0.20;0.20;;;;;;;38.84;33.85;99902.19;7392353;19;20029;-82
2023/10/03 11:14:01;;;;;;;4.95;0.85;;;;;;;39.75;32.54;99892.16;7391918;19;20480;-81
2023/10/03 11:16:28;;;;;;;0.00;0.00;;;;;;;39.97;32.37;99895.75;7389321;19;20007;-82
2023/10/03 11:18:56;;;;;;;0.88;0.22;;;;;;;39.49;32.69;99899.28;7393760;19;20014;-82
2023/10/03 11:21:23;;;;;;;6.75;0.55;;;;;;;38.59;33.71;99898.44;7388925;19;20022;-81
2023/10/03 11:24:08;;;;;;;1.10;0.57;;;;;;;36.93;34.91;99904.91;7391199;19;20023;-81
2023/10/03 11:26:43;;;;;;;0.30;0.10;;;;;;;36.69;35.80;99903.81;7389080;19;20026;-81
2023/10/03 11:29:09;;;;;;;1.05;0.32;;;;;;;37.15;35.81;99908.75;7393316;19;20026;-81
2023/10/03 11:31:40;;;;;;;0.03;0.00;;;;;;;37.65;35.48;99901.34;7392020;19;20111;-81
2023/10/03 11:34:07;;;;;;;0.10;0.10;;;;;;;38.04;34.16;99897.78;7391865;19;20013;-82
2023/10/03 11:36:44;;;;;;;0.00;0.00;;;;;;;36.66;35.46;99905.16;7390003;19;20026;-82
2023/10/03 11:39:13;;;;;;;4.47;0.80;;;;;;;38.32;33.35;99895.22;7393218;19;20026;-81
2023/10/03 11:41:39;;;;;;;0.10;0.10;;;;;;;38.74;32.59;99904.75;7388751;19;20019;-82